createdAt,value
2019-05-23T00:02:20.781Z,9.40
2019-05-23T00:05:00.856Z,11.87
2019-05-23T00:07:30.607Z,11.77
2019-05-23T00:10:03.266Z,9.87
2019-05-23T00:12:50.061Z,11.77
2019-05-23T00:15:25.624Z,12.97
2019-05-23T00:17:56.552Z,12.53
2019-05-23T00:20:25.630Z,10.47
2019-05-23T00:22:54.467Z,9.83
2019-05-23T00:25:24.694Z,9.60
2019-05-23T00:27:53.977Z,10.83
2019-05-23T00:30:32.232Z,9.63
2019-05-23T00:33:02.878Z,11.70
2019-05-23T00:35:33.721Z,12.10
2019-05-23T00:38:04.147Z,10.93
2019-05-23T00:40:33.602Z,11.10
2019-05-23T00:43:03.794Z,9.90
2019-05-23T00:45:32.814Z,11.57
2019-05-23T00:48:03.792Z,10.43
2019-05-23T00:50:33.319Z,9.50
2019-05-23T00:53:02.804Z,12.67
2019-05-23T00:55:32.539Z,10.93
2019-05-23T00:58:02.568Z,10.50
2019-05-23T01:00:32.364Z,10.13
2019-05-23T01:03:01.955Z,11.37
2019-05-23T01:05:31.102Z,11.40
2019-05-23T01:08:01.607Z,10.73
2019-05-23T01:10:30.726Z,11.50
2019-05-23T01:13:00.368Z,10.70
2019-05-23T01:15:29.600Z,10.90
2019-05-23T01:17:58.889Z,11.50
2019-05-23T01:20:51.421Z,12.40
2019-05-23T01:23:20.218Z,10.20
2019-05-23T01:25:49.715Z,14.00
2019-05-23T01:28:19.031Z,13.03
2019-05-23T01:30:49.505Z,13.30
2019-05-23T01:33:19.112Z,12.43
2019-05-23T01:35:49.073Z,12.27
2019-05-23T01:38:18.586Z,14.40
2019-05-23T01:40:47.495Z,11.10
2019-05-23T01:43:17.777Z,13.67
2019-05-23T01:45:46.804Z,11.97
2019-05-23T01:48:16.206Z,13.63
2019-05-23T01:50:46.285Z,15.00
2019-05-23T01:53:16.029Z,13.03
2019-05-23T01:55:44.807Z,11.07
2019-05-23T01:58:14.653Z,13.07
2019-05-23T02:00:44.100Z,12.57
2019-05-23T02:03:14.982Z,16.60
2019-05-23T02:05:44.289Z,11.57
2019-05-23T02:08:14.738Z,13.30
2019-05-23T02:10:44.047Z,12.23
2019-05-23T02:13:13.936Z,12.00
2019-05-23T02:15:44.238Z,11.53
2019-05-23T02:18:15.377Z,11.13
2019-05-23T02:20:46.125Z,13.47
2019-05-23T02:23:14.941Z,13.90
2019-05-23T02:25:44.177Z,14.60
2019-05-23T02:28:13.783Z,12.77
2019-05-23T02:30:43.198Z,16.77
2019-05-23T02:33:12.249Z,11.90
2019-05-23T02:35:41.119Z,13.40
2019-05-23T02:38:23.997Z,14.53
2019-05-23T02:40:59.660Z,13.60
2019-05-23T02:43:29.123Z,13.03
2019-05-23T02:46:02.419Z,12.10
2019-05-23T02:48:38.987Z,12.47
2019-05-23T02:51:13.060Z,16.20
2019-05-23T02:53:43.884Z,13.30
2019-05-23T02:56:15.707Z,14.50
2019-05-23T02:59:21.810Z,15.87
2019-05-23T03:02:18.659Z,14.07
2019-05-23T03:04:47.956Z,14.37
2019-05-23T03:07:20.313Z,15.70
2019-05-23T03:09:50.860Z,12.47
2019-05-23T03:12:19.966Z,14.10
2019-05-23T03:14:49.878Z,13.07
2019-05-23T03:17:21.001Z,12.63
2019-05-23T03:19:56.623Z,11.90
2019-05-23T03:22:31.706Z,13.23
2019-05-23T03:25:03.270Z,12.90
2019-05-23T03:27:35.752Z,12.90
2019-05-23T03:30:08.360Z,14.20
2019-05-23T03:32:49.012Z,18.07
2019-05-23T03:35:31.848Z,13.23
2019-05-23T03:38:01.769Z,13.60
2019-05-23T03:40:32.124Z,13.47
2019-05-23T03:43:01.175Z,12.50
2019-05-23T03:45:32.849Z,14.77
2019-05-23T03:48:03.462Z,15.63
2019-05-23T03:50:32.867Z,15.27
2019-05-23T03:53:02.045Z,14.67
2019-05-23T03:55:32.914Z,14.27
2019-05-23T03:58:02.986Z,14.63
2019-05-23T04:00:36.893Z,16.47
2019-05-23T04:03:07.607Z,14.30
2019-05-23T04:05:37.591Z,12.07
2019-05-23T04:08:07.602Z,16.23
2019-05-23T04:10:37.378Z,14.17
2019-05-23T04:13:06.874Z,16.27
2019-05-23T04:15:36.408Z,12.97
2019-05-23T04:18:05.467Z,15.33
2019-05-23T04:20:34.229Z,14.07
2019-05-23T04:23:04.295Z,16.07
2019-05-23T04:25:34.472Z,14.37
2019-05-23T04:28:03.679Z,14.50
2019-05-23T04:30:32.662Z,13.90
2019-05-23T04:33:01.686Z,15.13
2019-05-23T04:35:30.653Z,16.53
2019-05-23T04:37:59.816Z,14.37
2019-05-23T04:40:28.850Z,19.47
2019-05-23T04:42:57.795Z,17.97
2019-05-23T04:45:28.280Z,19.10
2019-05-23T04:47:57.779Z,16.73
2019-05-23T04:50:27.833Z,15.83
2019-05-23T04:52:57.089Z,18.60
2019-05-23T04:55:26.680Z,17.63
2019-05-23T04:57:55.680Z,19.37
2019-05-23T05:00:24.888Z,20.07
2019-05-23T05:02:54.457Z,17.13
2019-05-23T05:05:24.835Z,18.50
2019-05-23T05:07:53.827Z,18.03
2019-05-23T05:10:25.843Z,19.20
2019-05-23T05:12:54.942Z,18.63
2019-05-23T05:15:24.091Z,17.77
2019-05-23T05:17:52.895Z,19.67
2019-05-23T05:20:21.897Z,19.27
2019-05-23T05:22:51.037Z,19.10
2019-05-23T05:25:21.044Z,21.70
2019-05-23T05:27:50.784Z,19.47
2019-05-23T05:30:23.356Z,22.63
2019-05-23T05:32:52.359Z,19.40
2019-05-23T05:35:21.741Z,23.33
2019-05-23T05:37:50.704Z,18.63
2019-05-23T05:40:19.936Z,19.43
2019-05-23T05:42:48.762Z,19.80
2019-05-23T05:45:18.425Z,21.77
2019-05-23T05:47:47.258Z,20.57
2019-05-23T05:50:17.419Z,19.83
2019-05-23T05:52:46.317Z,22.03
2019-05-23T05:55:16.031Z,22.20
2019-05-23T05:57:44.813Z,20.47
2019-05-23T06:00:33.653Z,19.60
2019-05-23T06:03:05.539Z,19.83
2019-05-23T06:05:39.520Z,18.75
2019-05-23T06:08:10.401Z,23.87
2019-05-23T06:10:39.699Z,21.97
2019-05-23T06:13:08.459Z,21.30
2019-05-23T06:15:37.613Z,19.02
2019-05-23T06:18:07.047Z,21.60
2019-05-23T06:20:40.790Z,19.48
2019-05-23T06:23:10.920Z,20.40
2019-05-23T06:25:40.453Z,19.95
2019-05-23T06:28:09.822Z,21.62
2019-05-23T06:30:39.461Z,19.15
2019-05-23T06:33:22.472Z,20.65
2019-05-23T06:35:39.288Z,20.68
2019-05-23T06:38:08.640Z,17.90
2019-05-23T06:40:37.701Z,16.70
2019-05-23T06:43:06.828Z,18.65
2019-05-23T06:45:36.485Z,20.60
2019-05-23T06:48:05.637Z,15.55
2019-05-23T06:50:34.573Z,17.05
2019-05-23T06:53:05.108Z,17.30
2019-05-23T06:55:34.704Z,18.27
2019-05-23T06:58:04.484Z,20.35
2019-05-23T07:00:33.740Z,22.15
2019-05-23T07:03:02.740Z,20.60
2019-05-23T07:05:35.464Z,21.25
2019-05-23T07:08:04.918Z,15.65
2019-05-23T07:10:34.207Z,17.32
2019-05-23T07:13:03.117Z,13.98
2019-05-23T07:15:32.018Z,15.50
2019-05-23T07:18:02.223Z,16.80
2019-05-23T07:20:31.486Z,14.63
2019-05-23T07:23:01.037Z,15.80
2019-05-23T07:25:30.817Z,14.63
2019-05-23T07:28:00.324Z,19.98
2019-05-23T07:30:29.168Z,15.80
2019-05-23T07:32:58.093Z,14.15
2019-05-23T07:35:26.998Z,14.40
2019-05-23T07:37:55.843Z,13.50
2019-05-23T07:40:26.806Z,13.60
2019-05-23T07:42:55.892Z,13.15
2019-05-23T07:45:28.934Z,15.43
2019-05-23T07:47:58.812Z,13.88
2019-05-23T07:50:27.767Z,13.45
2019-05-23T07:52:58.250Z,14.15
2019-05-23T07:55:36.123Z,15.90
2019-05-23T07:58:05.798Z,16.45
2019-05-23T08:00:37.465Z,14.73
2019-05-23T08:03:08.964Z,15.18
2019-05-23T08:05:37.986Z,17.00
2019-05-23T08:08:07.631Z,14.58
2019-05-23T08:10:36.813Z,14.13
2019-05-23T08:13:05.849Z,13.62
2019-05-23T08:15:36.003Z,13.58
2019-05-23T08:18:06.335Z,16.45
2019-05-23T08:20:35.141Z,15.30
2019-05-23T08:23:03.973Z,15.18
2019-05-23T08:25:33.183Z,12.95
2019-05-23T08:28:02.595Z,14.00
2019-05-23T08:30:31.533Z,14.25
2019-05-23T08:33:01.057Z,15.35
2019-05-23T08:35:30.337Z,16.15
2019-05-23T08:38:00.516Z,14.20
2019-05-23T08:40:30.919Z,12.30
2019-05-23T08:43:00.098Z,13.83
2019-05-23T08:45:29.017Z,13.62
2019-05-23T08:47:58.040Z,11.85
2019-05-23T08:50:26.949Z,12.47
2019-05-23T08:52:56.868Z,11.22
2019-05-23T08:55:27.756Z,11.90
2019-05-23T08:57:57.940Z,13.98
2019-05-23T09:00:28.735Z,14.87
2019-05-23T09:02:59.282Z,13.72
2019-05-23T09:05:30.387Z,13.70
2019-05-23T09:07:59.976Z,13.25
2019-05-23T09:10:29.655Z,10.38
2019-05-23T09:12:59.411Z,10.65
2019-05-23T09:15:28.553Z,12.50
2019-05-23T09:17:57.911Z,12.85
2019-05-23T09:20:27.327Z,14.33
2019-05-23T09:22:56.538Z,10.95
2019-05-23T09:25:25.822Z,10.53
2019-05-23T09:27:56.007Z,9.85
2019-05-23T09:30:28.284Z,9.33
2019-05-23T09:32:57.437Z,9.53
2019-05-23T09:35:27.019Z,7.00
2019-05-23T09:37:56.418Z,7.35
2019-05-23T09:40:25.786Z,9.33
2019-05-23T09:42:54.738Z,7.35
2019-05-23T09:45:23.955Z,7.25
2019-05-23T09:47:52.886Z,6.62
2019-05-23T09:50:24.429Z,7.45
2019-05-23T09:52:53.345Z,9.08
2019-05-23T09:55:22.697Z,6.85
2019-05-23T09:57:51.559Z,6.90
2019-05-23T10:00:21.474Z,6.37
2019-05-23T10:02:50.361Z,4.37
2019-05-23T10:05:19.370Z,7.10
2019-05-23T10:07:48.312Z,7.42
2019-05-23T10:10:19.300Z,5.22
2019-05-23T10:12:49.662Z,6.55
2019-05-23T10:15:47.212Z,4.20
2019-05-23T10:18:19.752Z,4.62
2019-05-23T10:20:48.917Z,4.92
2019-05-23T10:23:17.851Z,4.10
2019-05-23T10:25:49.934Z,4.70
2019-05-23T10:28:19.171Z,4.67
2019-05-23T10:30:48.265Z,5.92
2019-05-23T10:33:17.516Z,4.22
2019-05-23T10:35:59.720Z,5.30
2019-05-23T10:38:17.393Z,6.30
2019-05-23T10:40:46.341Z,4.10
2019-05-23T10:43:15.307Z,6.80
2019-05-23T10:45:44.244Z,5.92
2019-05-23T10:48:13.887Z,4.90
2019-05-23T10:50:45.121Z,3.77
2019-05-23T10:53:14.325Z,4.95
2019-05-23T10:55:44.346Z,4.20
2019-05-23T10:58:14.971Z,6.55
2019-05-23T11:00:44.950Z,4.15
2019-05-23T11:03:15.194Z,5.85
2019-05-23T11:05:44.294Z,3.22
2019-05-23T11:08:14.735Z,5.47
2019-05-23T11:10:44.308Z,6.55
2019-05-23T11:13:13.247Z,4.05
2019-05-23T11:15:42.177Z,4.87
2019-05-23T11:18:11.971Z,4.40
2019-05-23T11:20:41.418Z,4.40
2019-05-23T11:23:12.663Z,4.95
2019-05-23T11:25:41.633Z,4.70
2019-05-23T11:28:10.649Z,3.62
2019-05-23T11:30:45.597Z,6.78
2019-05-23T11:33:14.828Z,4.85
2019-05-23T11:35:44.754Z,2.90
2019-05-23T11:38:14.011Z,5.92
2019-05-23T11:40:45.235Z,8.23
2019-05-23T11:43:13.992Z,7.08
2019-05-23T11:46:08.321Z,3.70
2019-05-23T11:48:38.331Z,2.65
2019-05-23T11:51:07.445Z,4.30
2019-05-23T11:53:36.495Z,6.60
2019-05-23T11:56:07.083Z,3.40
2019-05-23T11:58:35.971Z,3.72
2019-05-23T12:01:31.512Z,6.08
2019-05-23T12:04:13.827Z,7.83
2019-05-23T12:06:55.575Z,3.00
2019-05-23T12:09:21.439Z,4.90
2019-05-23T12:11:50.364Z,3.05
2019-05-23T12:14:19.509Z,3.55
2019-05-23T12:16:49.656Z,4.42
2019-05-23T12:19:18.928Z,7.12
2019-05-23T12:21:47.947Z,4.20
2019-05-23T12:24:16.915Z,4.00
2019-05-23T12:26:45.784Z,6.70
2019-05-23T12:29:15.181Z,5.72
2019-05-23T12:31:48.892Z,2.37
2019-05-23T12:34:14.835Z,2.12
2019-05-23T12:36:43.829Z,4.70
2019-05-23T12:39:12.995Z,3.10
2019-05-23T12:41:42.357Z,12.73
2019-05-23T12:44:11.271Z,4.22
2019-05-23T12:46:40.194Z,3.22
2019-05-23T12:49:21.974Z,2.33
2019-05-23T12:51:51.599Z,3.60
2019-05-23T12:54:20.526Z,3.37
2019-05-23T12:56:49.773Z,2.12
2019-05-23T12:59:18.645Z,3.67
2019-05-23T13:01:50.085Z,4.12
2019-05-23T13:04:19.926Z,2.58
2019-05-23T13:06:48.796Z,5.50
2019-05-23T13:09:17.994Z,3.27
2019-05-23T13:11:47.044Z,5.28
2019-05-23T13:14:16.500Z,4.45
2019-05-23T13:16:45.534Z,4.53
2019-05-23T13:19:15.760Z,5.95
2019-05-23T13:21:45.055Z,6.37
2019-05-23T13:24:14.035Z,7.10
2019-05-23T13:26:42.929Z,6.05
2019-05-23T13:29:11.864Z,6.33
2019-05-23T13:31:41.080Z,7.55
2019-05-23T13:34:09.880Z,8.18
2019-05-23T13:36:38.881Z,8.55
2019-05-23T13:39:10.331Z,8.58
2019-05-23T13:41:39.307Z,10.82
2019-05-23T13:44:08.515Z,8.13
2019-05-23T13:46:38.321Z,10.20
2019-05-23T13:49:07.513Z,7.80
2019-05-23T13:51:36.418Z,7.65
2019-05-23T13:54:05.487Z,9.65
2019-05-23T13:56:34.341Z,6.85
2019-05-23T13:59:03.573Z,8.15
2019-05-23T14:01:34.731Z,6.97
2019-05-23T14:04:03.682Z,8.83
2019-05-23T14:06:32.464Z,6.03
2019-05-23T14:09:01.488Z,7.83
2019-05-23T14:11:30.332Z,8.38
2019-05-23T14:14:01.864Z,8.48
2019-05-23T14:16:32.023Z,7.72
2019-05-23T14:19:01.008Z,8.83
2019-05-23T14:21:33.628Z,10.13
2019-05-23T14:24:02.585Z,8.28
2019-05-23T14:26:35.499Z,8.30
2019-05-23T14:29:04.504Z,6.62
2019-05-23T14:31:39.495Z,8.20
2019-05-23T14:34:17.209Z,6.08
2019-05-23T14:36:58.720Z,10.48
2019-05-23T14:39:39.819Z,6.70
2019-05-23T14:42:24.830Z,8.55
2019-05-23T14:44:53.663Z,7.83
2019-05-23T14:47:41.580Z,11.08
2019-05-23T14:50:35.735Z,7.10
2019-05-23T14:53:05.371Z,9.75
2019-05-23T14:55:34.262Z,10.28
2019-05-23T14:58:04.291Z,8.35
2019-05-23T15:00:34.518Z,7.92
2019-05-23T15:03:03.800Z,8.95
2019-05-23T15:05:32.769Z,10.43
2019-05-23T15:08:01.659Z,7.30
2019-05-23T15:10:30.907Z,8.78
2019-05-23T15:13:00.696Z,8.00
2019-05-23T15:15:29.706Z,10.10
2019-05-23T15:17:58.544Z,8.80
2019-05-23T15:20:27.491Z,7.22
2019-05-23T15:22:59.735Z,7.50
2019-05-23T15:25:26.903Z,7.67
2019-05-23T15:27:55.707Z,7.55
2019-05-23T15:30:24.901Z,7.30
2019-05-23T15:32:53.823Z,8.75
2019-05-23T15:35:22.604Z,7.60
2019-05-23T15:37:51.411Z,8.78
2019-05-23T15:40:20.876Z,8.05
2019-05-23T15:42:49.795Z,7.50
2019-05-23T15:45:18.639Z,7.87
2019-05-23T15:47:47.721Z,7.80
2019-05-23T15:50:23.761Z,8.73
2019-05-23T15:53:03.438Z,6.95
2019-05-23T15:55:52.797Z,6.65
2019-05-23T15:58:28.091Z,7.15
2019-05-23T16:01:07.306Z,8.00
2019-05-23T16:03:43.453Z,6.83
2019-05-23T16:06:14.675Z,6.67
2019-05-23T16:08:43.630Z,5.17
2019-05-23T16:11:16.667Z,5.58
2019-05-23T16:13:43.859Z,4.55
2019-05-23T16:16:12.622Z,4.20
2019-05-23T16:18:41.501Z,4.33
2019-05-23T16:21:11.277Z,5.90
2019-05-23T16:23:40.293Z,3.65
2019-05-23T16:26:11.560Z,4.45
2019-05-23T16:28:40.088Z,4.85
2019-05-23T16:31:09.126Z,3.22
2019-05-23T16:33:37.917Z,6.20
2019-05-23T16:36:06.858Z,4.55
2019-05-23T16:38:35.683Z,4.25
2019-05-23T16:41:04.943Z,4.72
2019-05-23T16:43:34.195Z,5.95
2019-05-23T16:46:03.121Z,4.80
2019-05-23T16:48:32.365Z,5.45
2019-05-23T16:51:01.181Z,5.50
2019-05-23T16:53:35.555Z,6.17
2019-05-23T16:56:09.893Z,5.97
2019-05-23T16:59:02.428Z,5.37
2019-05-23T17:01:55.561Z,5.55
2019-05-23T17:04:20.297Z,4.58
2019-05-23T17:06:58.351Z,4.55
2019-05-23T17:09:40.042Z,4.75
2019-05-23T17:12:39.929Z,6.20
2019-05-23T17:15:27.338Z,4.10
2019-05-23T17:18:14.203Z,4.80
2019-05-23T17:21:02.309Z,6.42
2019-05-23T17:23:59.155Z,5.92
2019-05-23T17:26:52.823Z,5.58
2019-05-23T17:29:30.491Z,4.15
2019-05-23T17:31:59.473Z,3.58
2019-05-23T17:34:28.516Z,3.77
2019-05-23T17:36:57.341Z,3.12
2019-05-23T17:39:28.401Z,4.97
2019-05-23T17:41:57.809Z,4.22
2019-05-23T17:44:27.102Z,4.37
2019-05-23T17:46:58.463Z,4.72
2019-05-23T17:49:27.477Z,3.20
2019-05-23T17:51:56.629Z,4.92
2019-05-23T17:54:27.704Z,2.87
2019-05-23T17:56:58.778Z,4.70
2019-05-23T17:59:28.012Z,4.62
2019-05-23T18:02:03.926Z,4.22
2019-05-23T18:04:36.752Z,3.72
2019-05-23T18:07:06.590Z,5.08
2019-05-23T18:09:35.812Z,3.02
2019-05-23T18:12:07.087Z,3.65
2019-05-23T18:14:37.948Z,5.67
2019-05-23T18:17:07.337Z,3.77
2019-05-23T18:19:36.748Z,5.28
2019-05-23T18:22:08.035Z,2.90
2019-05-23T18:24:37.693Z,3.40
2019-05-23T18:27:08.505Z,3.65
2019-05-23T18:29:37.836Z,6.72
2019-05-23T18:32:11.958Z,3.05
2019-05-23T18:34:40.999Z,4.50
2019-05-23T18:37:10.294Z,2.87
2019-05-23T18:39:41.451Z,4.83
2019-05-23T18:42:10.433Z,4.87
2019-05-23T18:44:39.738Z,3.25
2019-05-23T18:47:13.957Z,3.60
2019-05-23T18:49:43.586Z,3.25
2019-05-23T18:52:13.223Z,2.70
2019-05-23T18:54:42.380Z,6.03
2019-05-23T18:57:12.109Z,4.75
2019-05-23T18:59:41.243Z,3.22
2019-05-23T19:02:10.832Z,4.00
2019-05-23T19:04:40.309Z,2.95
2019-05-23T19:07:17.964Z,3.55
2019-05-23T19:23:02.135Z,3.98
2019-05-23T19:25:40.642Z,5.42
2019-05-23T19:27:56.704Z,4.10
2019-05-23T19:30:29.383Z,3.12
2019-05-23T19:32:58.924Z,3.27
2019-05-23T19:35:28.184Z,4.28
2019-05-23T19:38:01.350Z,3.45
2019-05-23T19:40:30.704Z,4.08
2019-05-23T19:43:02.475Z,6.08
2019-05-23T19:45:31.689Z,4.97
2019-05-23T19:48:01.293Z,5.60
2019-05-23T19:50:30.496Z,6.95
2019-05-23T19:53:00.048Z,2.85
2019-05-23T19:55:30.230Z,5.80
2019-05-23T19:58:00.853Z,5.20
2019-05-23T20:00:36.178Z,8.98
2019-05-23T20:03:04.344Z,5.65
2019-05-23T20:05:35.957Z,7.42
2019-05-23T20:08:05.472Z,4.40
2019-05-23T20:10:35.277Z,3.22
2019-05-23T20:13:04.656Z,8.03
2019-05-23T20:15:34.384Z,4.83
2019-05-23T20:18:03.435Z,5.87
2019-05-23T20:20:34.246Z,6.20
2019-05-23T20:23:03.482Z,7.33
2019-05-23T20:25:33.707Z,5.83
2019-05-23T20:28:02.867Z,7.45
2019-05-23T20:31:04.318Z,8.05
2019-05-23T20:33:33.328Z,6.58
2019-05-23T20:36:04.416Z,7.83
2019-05-23T20:38:33.549Z,7.20
2019-05-23T20:41:02.552Z,6.47
2019-05-23T20:43:31.493Z,7.58
2019-05-23T20:46:00.504Z,8.23
2019-05-23T20:48:30.517Z,7.97
2019-05-23T20:50:59.585Z,9.10
2019-05-23T20:53:28.488Z,6.80
2019-05-23T20:55:57.727Z,7.53
2019-05-23T20:58:26.723Z,7.97
2019-05-23T21:00:59.900Z,5.97
2019-05-23T21:03:29.905Z,6.37
2019-05-23T21:05:58.956Z,9.53
2019-05-23T21:08:28.561Z,7.85
2019-05-23T21:10:57.521Z,6.97
2019-05-23T21:13:26.510Z,7.30
2019-05-23T21:15:55.660Z,6.83
2019-05-23T21:18:24.660Z,8.30
2019-05-23T21:20:53.684Z,8.25
2019-05-23T21:23:24.081Z,6.85
2019-05-23T21:26:00.332Z,8.05
2019-05-23T21:28:33.028Z,8.58
2019-05-23T21:31:02.179Z,7.33
2019-05-23T21:33:32.717Z,7.53
2019-05-23T21:36:01.632Z,7.95
2019-05-23T21:38:30.813Z,6.87
2019-05-23T21:41:03.245Z,8.30
2019-05-23T21:43:30.473Z,9.93
2019-05-23T21:45:59.703Z,9.15
2019-05-23T21:48:28.626Z,7.12
2019-05-23T21:50:57.626Z,7.47
2019-05-23T21:53:26.483Z,9.80
2019-05-23T21:55:55.464Z,8.55
2019-05-23T21:58:24.774Z,7.15
2019-05-23T22:01:29.819Z,8.70
2019-05-23T22:04:18.273Z,7.92
2019-05-23T22:06:55.261Z,7.03
2019-05-23T22:09:22.530Z,7.72
2019-05-23T22:11:52.320Z,7.92
2019-05-23T22:14:21.917Z,6.62
2019-05-23T22:16:51.304Z,8.40
2019-05-23T22:19:21.597Z,6.15
2019-05-23T22:21:50.605Z,7.33
2019-05-23T22:24:20.176Z,10.70
2019-05-23T22:26:49.395Z,8.85
2019-05-23T22:29:18.565Z,13.08
2019-05-23T22:31:47.715Z,9.15
2019-05-23T22:34:51.053Z,7.67
2019-05-23T22:37:27.844Z,10.55
2019-05-23T22:39:56.888Z,8.05
2019-05-23T22:42:28.475Z,8.05
2019-05-23T22:44:57.871Z,5.65
2019-05-23T22:47:27.527Z,7.60
2019-05-23T22:49:56.496Z,7.35
2019-05-23T22:52:25.560Z,5.92
2019-05-23T22:54:54.436Z,6.65
2019-05-23T22:57:23.332Z,7.65
2019-05-23T22:59:52.183Z,5.47
2019-05-23T23:02:21.112Z,8.10
2019-05-23T23:04:49.990Z,7.47
2019-05-23T23:07:18.919Z,5.92
2019-05-23T23:09:47.888Z,8.23
2019-05-23T23:12:16.912Z,5.70
2019-05-23T23:14:47.568Z,5.97
2019-05-23T23:17:17.520Z,7.08
2019-05-23T23:19:46.312Z,6.15
2019-05-23T23:22:15.186Z,6.50
2019-05-23T23:24:44.127Z,8.93
2019-05-23T23:27:13.029Z,6.90
2019-05-23T23:29:41.897Z,7.37
2019-05-23T23:32:11.222Z,6.95
2019-05-23T23:34:40.153Z,8.75
2019-05-23T23:37:09.118Z,7.10
2019-05-23T23:39:38.075Z,7.55
2019-05-23T23:42:08.323Z,7.60
2019-05-23T23:44:36.322Z,8.35
2019-05-23T23:47:23.768Z,7.50
2019-05-23T23:50:10.725Z,7.03
2019-05-23T23:52:57.375Z,7.95
2019-05-23T23:55:44.221Z,9.90
2019-05-23T23:58:12.408Z,9.20
